createdAt,value
2019-02-18T00:00:33.408Z,0.00
2019-02-18T00:01:33.630Z,0.00
2019-02-18T00:02:33.288Z,0.00
2019-02-18T00:03:33.509Z,0.00
2019-02-18T00:04:34.364Z,0.00
2019-02-18T00:05:33.363Z,0.00
2019-02-18T00:06:34.668Z,0.00
2019-02-18T00:07:33.102Z,0.00
2019-02-18T00:08:33.358Z,0.00
2019-02-18T00:09:33.042Z,0.00
2019-02-18T00:10:33.318Z,0.00
2019-02-18T00:12:32.981Z,0.00
2019-02-18T00:15:33.000Z,0.00
2019-02-18T00:17:33.142Z,0.00
2019-02-18T00:18:32.809Z,0.00
2019-02-18T00:19:32.784Z,0.00
2019-02-18T00:20:32.760Z,0.00
2019-02-18T00:21:33.287Z,0.00
2019-02-18T00:22:32.969Z,0.00
2019-02-18T00:24:32.653Z,0.00
2019-02-18T00:25:32.631Z,0.00
2019-02-18T00:26:32.883Z,0.00
2019-02-18T00:27:32.648Z,0.00
2019-02-18T00:28:32.599Z,0.00
2019-02-18T00:29:32.775Z,0.00
2019-02-18T00:30:32.507Z,0.00
2019-02-18T00:31:32.480Z,0.00
2019-02-18T00:32:32.467Z,0.00
2019-02-18T00:33:32.456Z,0.00
2019-02-18T00:34:32.405Z,0.00
2019-02-18T00:35:32.680Z,0.00
2019-02-18T00:36:32.352Z,0.00
2019-02-18T00:37:32.325Z,0.00
2019-02-18T00:38:32.293Z,0.00
2019-02-18T00:39:32.267Z,0.00
2019-02-18T00:41:32.544Z,0.00
2019-02-18T00:42:32.191Z,0.00
2019-02-18T00:43:32.171Z,0.00
2019-02-18T00:44:32.158Z,0.00
2019-02-18T00:45:32.179Z,0.00
2019-02-18T00:46:32.100Z,0.00
2019-02-18T00:47:32.315Z,0.00
2019-02-18T00:48:32.052Z,0.00
2019-02-18T00:49:32.125Z,0.00
2019-02-18T00:50:32.057Z,0.00
2019-02-18T00:51:31.965Z,0.00
2019-02-18T00:52:32.194Z,0.00
2019-02-18T00:53:32.369Z,0.00
2019-02-18T00:54:31.889Z,0.00
2019-02-18T00:55:31.883Z,0.00
2019-02-18T00:56:31.862Z,0.00
2019-02-18T00:57:31.826Z,0.00
2019-02-18T00:58:31.809Z,0.00
2019-02-18T00:59:31.765Z,0.00
2019-02-18T01:00:32.052Z,0.00
2019-02-18T01:01:31.723Z,0.00
2019-02-18T01:02:31.724Z,0.00
2019-02-18T01:03:31.693Z,0.00
2019-02-18T01:04:31.643Z,0.00
2019-02-18T01:05:31.627Z,0.00
2019-02-18T01:06:31.593Z,0.00
2019-02-18T01:07:34.875Z,0.00
2019-02-18T01:08:31.676Z,0.00
2019-02-18T01:09:31.515Z,0.00
2019-02-18T01:10:31.493Z,0.00
2019-02-18T01:11:31.497Z,0.00
2019-02-18T01:12:31.481Z,0.00
2019-02-18T01:13:31.419Z,0.00
2019-02-18T01:14:31.645Z,0.00
2019-02-18T01:15:31.372Z,0.00
2019-02-18T01:16:31.369Z,0.00
2019-02-18T01:17:31.325Z,0.00
2019-02-18T01:18:31.444Z,0.00
2019-02-18T01:19:31.277Z,0.00
2019-02-18T01:20:31.250Z,0.00
2019-02-18T01:21:31.477Z,0.00
2019-02-18T01:22:31.199Z,0.00
2019-02-18T01:24:31.154Z,0.00
2019-02-18T01:25:31.128Z,0.00
2019-02-18T01:26:31.100Z,0.00
2019-02-18T01:27:31.078Z,0.00
2019-02-18T01:28:31.304Z,0.00
2019-02-18T01:29:31.031Z,0.00
2019-02-18T01:30:31.021Z,0.00
2019-02-18T01:31:30.987Z,0.00
2019-02-18T01:32:30.959Z,0.00
2019-02-18T01:33:30.932Z,0.00
2019-02-18T01:35:31.132Z,0.00
2019-02-18T01:36:30.859Z,0.00
2019-02-18T01:37:31.211Z,0.00
2019-02-18T01:38:30.811Z,0.00
2019-02-18T01:39:31.137Z,0.00
2019-02-18T01:40:30.761Z,0.00
2019-02-18T01:41:30.753Z,0.00
2019-02-18T01:42:31.021Z,0.00
2019-02-18T01:43:30.687Z,0.00
2019-02-18T01:44:30.667Z,0.00
2019-02-18T01:45:30.699Z,0.00
2019-02-18T01:46:31.502Z,0.00
2019-02-18T01:47:30.597Z,0.00
2019-02-18T01:48:30.824Z,0.00
2019-02-18T01:49:30.547Z,0.00
2019-02-18T01:50:30.523Z,0.00
2019-02-18T01:51:30.506Z,0.00
2019-02-18T01:52:30.480Z,0.00
2019-02-18T01:53:30.452Z,0.00
2019-02-18T01:54:30.729Z,0.00
2019-02-18T01:55:30.416Z,0.00
2019-02-18T01:56:30.380Z,0.00
2019-02-18T01:58:30.422Z,0.00
2019-02-18T02:00:30.529Z,0.00
2019-02-18T02:01:30.638Z,0.00
2019-02-18T02:02:30.234Z,0.00
2019-02-18T02:03:30.210Z,0.00
2019-02-18T02:04:30.185Z,0.00
2019-02-18T02:05:30.152Z,0.00
2019-02-18T02:06:30.432Z,0.00
2019-02-18T02:07:30.110Z,0.00
2019-02-18T02:08:30.099Z,0.00
2019-02-18T02:09:30.093Z,0.00
2019-02-18T02:10:30.106Z,0.00
2019-02-18T02:11:30.033Z,0.00
2019-02-18T02:12:30.236Z,0.00
2019-02-18T02:13:29.976Z,0.00
2019-02-18T02:14:30.168Z,0.00
2019-02-18T02:15:30.492Z,0.00
2019-02-18T02:17:29.873Z,0.00
2019-02-18T02:18:29.856Z,0.00
2019-02-18T02:19:30.061Z,0.00
2019-02-18T02:20:29.788Z,0.00
2019-02-18T02:21:29.775Z,0.00
2019-02-18T02:22:29.739Z,0.00
2019-02-18T02:23:29.716Z,0.00
2019-02-18T02:24:29.692Z,0.00
2019-02-18T02:25:29.666Z,0.00
2019-02-18T02:26:30.548Z,0.00
2019-02-18T02:27:29.634Z,0.00
2019-02-18T02:29:29.567Z,0.00
2019-02-18T02:30:29.549Z,0.00
2019-02-18T02:32:29.496Z,0.00
2019-02-18T02:33:29.721Z,0.00
2019-02-18T02:34:29.453Z,0.00
2019-02-18T02:35:29.420Z,0.00
2019-02-18T02:36:29.410Z,0.00
2019-02-18T02:37:29.368Z,0.00
2019-02-18T02:39:29.324Z,0.00
2019-02-18T02:40:29.603Z,0.00
2019-02-18T02:41:29.326Z,0.00
2019-02-18T02:42:29.244Z,0.00
2019-02-18T02:43:29.498Z,0.00
2019-02-18T02:44:29.199Z,0.00
2019-02-18T02:45:29.177Z,0.00
2019-02-18T02:46:29.151Z,0.00
2019-02-18T02:47:29.444Z,0.00
2019-02-18T02:48:29.109Z,0.00
2019-02-18T02:49:29.081Z,0.00
2019-02-18T02:50:29.063Z,0.00
2019-02-18T02:51:29.079Z,0.00
2019-02-18T02:52:29.001Z,0.00
2019-02-18T02:53:29.004Z,0.00
2019-02-18T02:54:29.264Z,0.00
2019-02-18T02:55:28.928Z,0.00
2019-02-18T02:56:28.919Z,0.00
2019-02-18T02:57:28.880Z,0.00
2019-02-18T02:59:28.826Z,0.00
2019-02-18T03:00:28.807Z,0.00
2019-02-18T03:01:29.052Z,0.00
2019-02-18T03:02:28.756Z,0.00
2019-02-18T03:03:28.727Z,0.00
2019-02-18T03:04:28.718Z,0.00
2019-02-18T03:05:28.687Z,0.00
2019-02-18T03:06:28.662Z,0.00
2019-02-18T03:07:29.027Z,0.00
2019-02-18T03:08:28.602Z,0.00
2019-02-18T03:09:28.601Z,0.00
2019-02-18T03:10:28.562Z,0.00
2019-02-18T03:11:28.532Z,0.00
2019-02-18T03:12:28.504Z,0.00
2019-02-18T03:13:28.866Z,0.00
2019-02-18T03:14:28.795Z,0.00
2019-02-18T03:15:28.451Z,0.00
2019-02-18T03:16:28.415Z,0.00
2019-02-18T03:17:28.399Z,0.00
2019-02-18T03:18:28.363Z,0.00
2019-02-18T03:19:28.650Z,0.00
2019-02-18T03:20:28.345Z,0.00
2019-02-18T03:21:28.291Z,0.00
2019-02-18T03:22:28.272Z,0.00
2019-02-18T03:23:28.310Z,0.00
2019-02-18T03:24:28.220Z,0.00
2019-02-18T03:25:28.524Z,0.00
2019-02-18T03:26:28.163Z,0.00
2019-02-18T03:27:28.133Z,0.00
2019-02-18T03:28:28.124Z,0.00
2019-02-18T03:29:28.107Z,0.00
2019-02-18T03:30:28.077Z,0.00
2019-02-18T03:31:28.367Z,0.00
2019-02-18T03:32:28.021Z,0.00
2019-02-18T03:33:27.990Z,0.00
2019-02-18T03:34:27.972Z,0.00
2019-02-18T03:35:28.001Z,0.00
2019-02-18T03:36:27.983Z,0.00
2019-02-18T03:37:28.188Z,0.00
2019-02-18T03:38:31.666Z,0.00
2019-02-18T03:39:27.855Z,0.00
2019-02-18T03:40:27.811Z,0.00
2019-02-18T03:41:27.787Z,0.00
2019-02-18T03:42:27.800Z,0.00
2019-02-18T03:43:27.734Z,0.00
2019-02-18T03:44:28.018Z,0.00
2019-02-18T03:45:27.690Z,0.00
2019-02-18T03:46:27.676Z,0.00
2019-02-18T03:47:27.643Z,0.00
2019-02-18T03:49:27.591Z,0.00
2019-02-18T03:50:27.708Z,0.00
2019-02-18T03:52:27.510Z,0.00
2019-02-18T03:53:27.490Z,0.00
2019-02-18T03:54:27.507Z,0.00
2019-02-18T03:55:27.444Z,0.00
2019-02-18T03:56:27.434Z,0.00
2019-02-18T03:57:27.380Z,0.00
2019-02-18T03:59:27.342Z,0.00
2019-02-18T04:00:27.321Z,0.00
2019-02-18T04:01:27.279Z,0.00
2019-02-18T04:02:27.275Z,0.00
2019-02-18T04:03:27.278Z,0.00
2019-02-18T04:04:27.203Z,0.00
2019-02-18T04:05:27.485Z,0.00
2019-02-18T04:06:27.160Z,0.00
2019-02-18T04:07:27.153Z,0.00
2019-02-18T04:08:27.757Z,0.00
2019-02-18T04:09:27.116Z,0.00
2019-02-18T04:10:27.065Z,0.00
2019-02-18T04:11:27.046Z,0.00
2019-02-18T04:12:27.260Z,0.00
2019-02-18T04:13:26.984Z,0.00
2019-02-18T04:18:27.553Z,0.00
2019-02-18T04:19:26.847Z,0.00
2019-02-18T04:20:26.811Z,0.00
2019-02-18T04:21:26.827Z,0.00
2019-02-18T04:22:27.015Z,0.00
2019-02-18T04:23:26.850Z,0.00
2019-02-18T04:24:26.862Z,0.00
2019-02-18T04:25:27.096Z,0.00
2019-02-18T04:26:26.692Z,0.00
2019-02-18T04:29:26.591Z,0.00
2019-02-18T04:30:26.569Z,0.00
2019-02-18T04:31:26.867Z,0.00
2019-02-18T04:33:55.662Z,0.00
2019-02-18T04:34:26.451Z,0.00
2019-02-18T04:35:26.492Z,0.00
2019-02-18T04:36:26.400Z,0.00
2019-02-18T04:37:26.928Z,0.00
2019-02-18T04:38:26.366Z,0.00
2019-02-18T04:39:26.384Z,0.00
2019-02-18T04:40:26.321Z,0.00
2019-02-18T04:41:26.297Z,0.00
2019-02-18T04:42:26.260Z,0.00
2019-02-18T04:43:26.593Z,0.00
2019-02-18T04:44:26.222Z,0.00
2019-02-18T04:45:26.183Z,0.00
2019-02-18T04:46:26.148Z,0.00
2019-02-18T04:47:26.136Z,0.00
2019-02-18T04:48:26.154Z,0.00
2019-02-18T04:49:26.340Z,0.00
2019-02-18T04:50:26.054Z,0.00
2019-02-18T04:51:26.095Z,0.00
2019-02-18T04:52:26.078Z,0.00
2019-02-18T04:53:25.971Z,0.00
2019-02-18T04:54:25.977Z,0.00
2019-02-18T04:55:26.396Z,0.00
2019-02-18T04:56:25.914Z,0.00
2019-02-18T04:57:26.001Z,0.00
2019-02-18T04:58:25.853Z,0.00
2019-02-18T04:59:25.986Z,0.00
2019-02-18T05:00:25.846Z,0.00
2019-02-18T05:01:26.099Z,0.00
2019-02-18T05:02:25.751Z,0.00
2019-02-18T05:03:25.764Z,0.00
2019-02-18T05:04:25.742Z,0.00
2019-02-18T05:05:25.663Z,0.00
2019-02-18T05:06:25.726Z,0.00
2019-02-18T05:07:25.628Z,0.00
2019-02-18T05:08:25.841Z,0.00
2019-02-18T05:09:25.612Z,0.00
2019-02-18T05:10:25.579Z,0.00
2019-02-18T05:11:25.506Z,0.00
2019-02-18T05:12:25.897Z,0.00
2019-02-18T05:13:25.464Z,0.00
2019-02-18T05:14:25.461Z,0.00
2019-02-18T05:15:26.570Z,0.00
2019-02-18T05:16:25.724Z,0.00
2019-02-18T05:17:25.498Z,0.00
2019-02-18T05:18:25.358Z,0.00
2019-02-18T05:19:25.321Z,0.00
2019-02-18T05:20:25.275Z,0.00
2019-02-18T05:21:25.265Z,0.00
2019-02-18T05:22:25.525Z,0.00
2019-02-18T05:23:25.361Z,0.00
2019-02-18T05:24:25.169Z,0.00
2019-02-18T05:25:25.225Z,0.00
2019-02-18T05:26:25.212Z,0.00
2019-02-18T05:27:33.091Z,0.00
2019-02-18T05:28:25.076Z,0.00
2019-02-18T05:29:25.343Z,0.00
2019-02-18T05:30:25.127Z,0.00
2019-02-18T05:31:24.981Z,0.00
2019-02-18T05:32:24.997Z,0.00
2019-02-18T05:33:24.932Z,0.00
2019-02-18T05:34:24.907Z,0.00
2019-02-18T05:35:24.925Z,0.00
2019-02-18T05:36:28.251Z,0.00
2019-02-18T05:38:24.825Z,0.00
2019-02-18T05:39:24.844Z,0.00
2019-02-18T05:40:24.777Z,0.00
2019-02-18T05:41:24.822Z,0.00
2019-02-18T05:42:24.731Z,0.00
2019-02-18T05:43:25.017Z,0.00
2019-02-18T05:44:24.651Z,0.00
2019-02-18T05:45:24.689Z,0.00
2019-02-18T05:46:24.618Z,0.00
2019-02-18T05:47:24.586Z,0.00
2019-02-18T05:48:24.557Z,0.00
2019-02-18T05:49:24.529Z,0.00
2019-02-18T05:50:24.761Z,0.00
2019-02-18T05:51:24.496Z,0.00
2019-02-18T05:52:24.486Z,0.00
2019-02-18T05:53:24.438Z,0.00
2019-02-18T05:54:24.449Z,0.00
2019-02-18T05:55:24.369Z,0.00
2019-02-18T05:56:27.442Z,0.00
2019-02-18T05:57:24.640Z,0.00
2019-02-18T05:58:24.525Z,4.00
2019-02-18T05:59:25.417Z,4.00
2019-02-18T06:00:24.447Z,0.00
2019-02-18T06:01:24.769Z,0.00
2019-02-18T06:02:24.835Z,4.00
2019-02-18T06:04:27.659Z,4.00
2019-02-18T06:05:24.120Z,8.00
2019-02-18T06:06:24.110Z,4.00
2019-02-18T06:07:24.099Z,8.00
2019-02-18T06:08:24.465Z,8.00
2019-02-18T06:09:29.946Z,12.00
2019-02-18T06:11:24.090Z,12.00
2019-02-18T06:12:24.147Z,16.00
2019-02-18T06:13:24.725Z,20.00
2019-02-18T06:14:24.847Z,24.00
2019-02-18T06:15:24.343Z,24.00
2019-02-18T06:16:23.959Z,28.00
2019-02-18T06:17:23.825Z,32.00
2019-02-18T06:18:24.063Z,40.00
2019-02-18T06:19:23.767Z,48.00
2019-02-18T06:20:24.123Z,52.00
2019-02-18T06:21:23.704Z,60.00
2019-02-18T06:22:23.685Z,72.00
2019-02-18T06:23:23.838Z,80.00
2019-02-18T06:24:23.884Z,92.00
2019-02-18T06:26:23.580Z,116.00
2019-02-18T06:27:24.156Z,128.00
2019-02-18T06:29:23.511Z,160.00
2019-02-18T06:30:23.515Z,176.00
2019-02-18T06:31:23.451Z,192.00
2019-02-18T06:32:23.412Z,212.00
2019-02-18T06:33:23.704Z,232.00
2019-02-18T06:34:23.372Z,256.00
2019-02-18T06:35:23.359Z,276.00
2019-02-18T06:36:24.280Z,300.00
2019-02-18T06:37:24.737Z,324.00
2019-02-18T06:39:26.099Z,372.00
2019-02-18T06:40:26.111Z,396.00
2019-02-18T06:41:26.643Z,424.00
2019-02-18T06:42:29.103Z,452.00
2019-02-18T06:44:29.270Z,504.00
2019-02-18T06:45:25.940Z,528.00
2019-02-18T06:46:23.279Z,556.00
2019-02-18T06:47:25.202Z,584.00
2019-02-18T06:48:23.099Z,612.00
2019-02-18T06:49:23.003Z,640.00
2019-02-18T06:50:22.993Z,668.00
2019-02-18T06:51:23.041Z,692.00
2019-02-18T06:52:23.221Z,724.00
2019-02-18T06:53:22.899Z,752.00
2019-02-18T06:54:22.943Z,780.00
2019-02-18T06:55:22.836Z,816.00
2019-02-18T06:56:22.895Z,844.00
2019-02-18T06:57:22.816Z,868.00
2019-02-18T06:58:22.842Z,896.00
2019-02-18T06:59:22.738Z,924.00
2019-02-18T07:00:22.813Z,952.00
2019-02-18T07:01:22.710Z,980.00
2019-02-18T07:02:22.683Z,1004.00
2019-02-18T07:03:22.766Z,1036.00
2019-02-18T07:04:22.628Z,1060.00
2019-02-18T07:05:22.607Z,1088.00
2019-02-18T07:06:22.795Z,1116.00
2019-02-18T07:07:22.730Z,1144.00
2019-02-18T07:08:22.845Z,1168.00
2019-02-18T07:09:22.647Z,1196.00
2019-02-18T07:11:22.436Z,1248.00
2019-02-18T07:12:22.483Z,1276.00
2019-02-18T07:13:22.401Z,1296.00
2019-02-18T07:14:22.378Z,1324.00
2019-02-18T07:15:22.434Z,1352.00
2019-02-18T07:16:22.328Z,1376.00
2019-02-18T07:18:22.274Z,1420.00
2019-02-18T07:19:22.243Z,1444.00
2019-02-18T07:20:22.234Z,1468.00
2019-02-18T07:21:22.352Z,1488.00
2019-02-18T07:22:23.088Z,1512.00
2019-02-18T07:23:22.212Z,1528.00
2019-02-18T07:24:22.147Z,1548.00
2019-02-18T07:25:22.153Z,1572.00
2019-02-18T07:28:22.520Z,1648.00
2019-02-18T07:29:22.578Z,1676.00
2019-02-18T07:30:22.058Z,1696.00
2019-02-18T07:31:21.943Z,1716.00
2019-02-18T07:32:22.259Z,1736.00
2019-02-18T07:33:22.655Z,1756.00
2019-02-18T07:34:22.296Z,1780.00
2019-02-18T07:35:21.843Z,1804.00
2019-02-18T07:36:21.863Z,1828.00
2019-02-18T07:37:21.866Z,1852.00
2019-02-18T07:38:21.817Z,1872.00
2019-02-18T07:39:21.945Z,1896.00
2019-02-18T07:40:22.138Z,1924.00
2019-02-18T07:41:21.794Z,1944.00
2019-02-18T07:42:21.659Z,1972.00
2019-02-18T07:43:23.175Z,2000.00
2019-02-18T07:44:21.619Z,2032.00
2019-02-18T07:45:21.614Z,2052.00
2019-02-18T07:46:21.879Z,2080.00
2019-02-18T07:48:21.626Z,2132.00
2019-02-18T07:49:21.522Z,2156.00
2019-02-18T07:50:21.500Z,2192.00
2019-02-18T07:51:21.443Z,2216.00
2019-02-18T07:52:21.853Z,2244.00
2019-02-18T07:53:21.409Z,2264.00
2019-02-18T07:54:21.397Z,2284.00
2019-02-18T07:55:21.509Z,2308.00
2019-02-18T07:57:21.308Z,2352.00
2019-02-18T07:58:21.592Z,2368.00
2019-02-18T07:59:22.236Z,2384.00
2019-02-18T08:00:21.300Z,2408.00
2019-02-18T08:01:21.314Z,2432.00
2019-02-18T08:02:21.410Z,2460.00
2019-02-18T08:03:21.244Z,2476.00
2019-02-18T08:04:21.331Z,2496.00
2019-02-18T08:05:21.156Z,2508.00
2019-02-18T08:06:21.128Z,2532.00
2019-02-18T08:07:21.286Z,2560.00
2019-02-18T08:08:21.245Z,2588.00
2019-02-18T08:09:21.126Z,2616.00
2019-02-18T08:10:21.372Z,2640.00
2019-02-18T08:11:21.006Z,2660.00
2019-02-18T08:12:21.127Z,2680.00
2019-02-18T08:13:21.051Z,2700.00
2019-02-18T08:14:20.936Z,2724.00
2019-02-18T08:15:20.970Z,2748.00
2019-02-18T08:16:21.271Z,2768.00
2019-02-18T08:18:21.657Z,2816.00
2019-02-18T08:19:20.825Z,2848.00
2019-02-18T08:20:20.808Z,2872.00
2019-02-18T08:21:20.806Z,2900.00
2019-02-18T08:22:21.164Z,2928.00
2019-02-18T08:23:20.774Z,2952.00
2019-02-18T08:25:20.699Z,2992.00
2019-02-18T08:26:20.692Z,3020.00
2019-02-18T08:27:20.647Z,3048.00
2019-02-18T08:28:20.947Z,3076.00
2019-02-18T08:29:20.627Z,3100.00
2019-02-18T08:30:20.593Z,3124.00
2019-02-18T08:31:20.869Z,3152.00
2019-02-18T08:32:20.555Z,3184.00
2019-02-18T08:33:20.594Z,3212.00
2019-02-18T08:34:20.832Z,3248.00
2019-02-18T08:35:20.512Z,3284.00
2019-02-18T08:36:20.467Z,3316.00
2019-02-18T08:37:20.482Z,3348.00
2019-02-18T08:38:20.437Z,3372.00
2019-02-18T08:39:20.447Z,3400.00
2019-02-18T08:40:22.726Z,3428.00
2019-02-18T08:41:20.419Z,3460.00
2019-02-18T08:42:20.398Z,3492.00
2019-02-18T08:43:20.356Z,3516.00
2019-02-18T08:44:20.339Z,3540.00
2019-02-18T08:45:20.294Z,3564.00
2019-02-18T08:46:20.575Z,3596.00
2019-02-18T08:47:20.295Z,3632.00
2019-02-18T08:48:20.379Z,3664.00
2019-02-18T08:49:20.318Z,3692.00
2019-02-18T08:50:20.293Z,3728.00
2019-02-18T08:51:20.352Z,3764.00
2019-02-18T08:52:20.511Z,3796.00
2019-02-18T08:53:20.157Z,3824.00
2019-02-18T08:54:20.180Z,3852.00
2019-02-18T08:55:20.132Z,3880.00
2019-02-18T08:56:20.137Z,3916.00
2019-02-18T08:57:20.133Z,3940.00
2019-02-18T08:58:20.355Z,3972.00
2019-02-18T08:59:20.044Z,4008.00
2019-02-18T09:00:20.009Z,4044.00
2019-02-18T09:01:20.058Z,4068.00
2019-02-18T09:02:20.000Z,4096.00
2019-02-18T09:03:19.966Z,4120.00
2019-02-18T09:17:20.310Z,4572.00
2019-02-18T09:18:19.837Z,4604.00
2019-02-18T09:19:19.679Z,4636.00
2019-02-18T09:20:19.680Z,4668.00
2019-02-18T09:21:19.661Z,4704.00
2019-02-18T09:22:19.633Z,4740.00
2019-02-18T09:23:19.916Z,4796.00
2019-02-18T09:24:19.596Z,4848.00
2019-02-18T09:27:19.546Z,4996.00
2019-02-18T09:28:19.673Z,5052.00
2019-02-18T09:29:19.888Z,5092.00
2019-02-18T09:30:19.554Z,5136.00
2019-02-18T09:31:19.493Z,5176.00
2019-02-18T09:32:19.478Z,5228.00
2019-02-18T09:33:19.569Z,5272.00
2019-02-18T09:34:19.452Z,5308.00
2019-02-18T09:35:19.767Z,5344.00
2019-02-18T09:36:21.368Z,5384.00
2019-02-18T09:38:24.785Z,5468.00
2019-02-18T09:39:30.020Z,5508.00
2019-02-18T09:40:19.368Z,5564.00
2019-02-18T09:41:19.643Z,5604.00
2019-02-18T09:42:19.324Z,5652.00
2019-02-18T09:43:19.475Z,5712.00
2019-02-18T09:45:19.348Z,5836.00
2019-02-18T09:46:19.259Z,5908.00
2019-02-18T09:47:19.550Z,5964.00
2019-02-18T09:48:19.238Z,6036.00
2019-02-18T09:50:20.823Z,6168.00
2019-02-18T09:51:19.202Z,6224.00
2019-02-18T09:52:19.187Z,6288.00
2019-02-18T09:53:19.179Z,6352.00
2019-02-18T09:54:19.471Z,6428.00
2019-02-18T09:55:19.252Z,6504.00
2019-02-18T09:56:19.133Z,6584.00
2019-02-18T09:57:19.130Z,6644.00
2019-02-18T09:58:19.107Z,6712.00
2019-02-18T09:59:19.103Z,6760.00
2019-02-18T10:00:19.440Z,6788.00
2019-02-18T10:01:19.058Z,6824.00
2019-02-18T10:02:19.059Z,6892.00
2019-02-18T10:03:19.282Z,6952.00
2019-02-18T10:04:19.032Z,7008.00
2019-02-18T10:05:19.020Z,7056.00
2019-02-18T10:06:19.346Z,7112.00
2019-02-18T10:07:19.002Z,7164.00
2019-02-18T10:08:19.102Z,7212.00
2019-02-18T10:09:18.978Z,7252.00
2019-02-18T10:10:18.973Z,7308.00
2019-02-18T10:11:18.945Z,7364.00
2019-02-18T10:12:19.241Z,7424.00
2019-02-18T10:13:18.975Z,7528.00
2019-02-18T10:14:18.907Z,7684.00
2019-02-18T10:16:18.903Z,7956.00
2019-02-18T10:17:18.867Z,8152.00
2019-02-18T10:18:19.158Z,8328.00
2019-02-18T10:19:18.851Z,8512.00
2019-02-18T10:20:18.846Z,8764.00
2019-02-18T10:21:18.886Z,9092.00
2019-02-18T10:37:18.930Z,32800.00
2019-02-18T10:38:18.641Z,34368.00
2019-02-18T10:39:18.616Z,33088.00
2019-02-18T10:41:19.359Z,26176.00
2019-02-18T10:42:18.788Z,22560.00
2019-02-18T10:43:18.940Z,20000.00
2019-02-18T10:44:18.557Z,18304.00
2019-02-18T10:45:18.546Z,16384.00
2019-02-18T10:46:18.538Z,14428.00
2019-02-18T10:47:20.447Z,12860.00
2019-02-18T10:48:18.819Z,11768.00
2019-02-18T10:49:20.070Z,11112.00
2019-02-18T10:50:18.559Z,10732.00
2019-02-18T10:51:18.476Z,10508.00
2019-02-18T10:52:18.592Z,10276.00
2019-02-18T10:53:18.475Z,9976.00
2019-02-18T10:54:18.704Z,9688.00
2019-02-18T10:55:19.235Z,9636.00
2019-02-18T10:56:19.073Z,9728.00
2019-02-18T10:57:18.418Z,9856.00
2019-02-18T10:58:18.682Z,10064.00
2019-02-18T10:59:18.399Z,10344.00
2019-02-18T11:00:18.522Z,10632.00
2019-02-18T11:01:18.680Z,10876.00
2019-02-18T11:02:18.367Z,11036.00
2019-02-18T11:03:18.368Z,11224.00
2019-02-18T11:04:18.458Z,11288.00
2019-02-18T11:05:18.576Z,11520.00
2019-02-18T11:06:18.336Z,11892.00
2019-02-18T11:07:18.631Z,12100.00
2019-02-18T11:08:19.005Z,12136.00
2019-02-18T11:09:18.290Z,11940.00
2019-02-18T11:10:18.666Z,11924.00
2019-02-18T11:11:18.293Z,11832.00
2019-02-18T11:12:18.267Z,11836.00
2019-02-18T11:13:18.729Z,11908.00
2019-02-18T11:14:18.540Z,12028.00
2019-02-18T11:15:18.275Z,12032.00
2019-02-18T11:17:18.209Z,11872.00
2019-02-18T11:18:18.197Z,11844.00
2019-02-18T11:19:18.192Z,11792.00
2019-02-18T11:20:18.481Z,11364.00
2019-02-18T11:21:18.300Z,10996.00
2019-02-18T11:22:18.349Z,11676.00
2019-02-18T11:23:18.151Z,12296.00
2019-02-18T11:24:20.611Z,12340.00
2019-02-18T11:25:18.134Z,12356.00
2019-02-18T11:26:18.461Z,12372.00
2019-02-18T11:27:18.119Z,12276.00
2019-02-18T11:28:18.107Z,12120.00
2019-02-18T11:29:18.110Z,12080.00
2019-02-18T11:30:18.078Z,12120.00
2019-02-18T11:31:18.071Z,12136.00
2019-02-18T11:32:18.315Z,12192.00
2019-02-18T11:33:18.060Z,12176.00
2019-02-18T11:34:18.042Z,12308.00
2019-02-18T11:35:18.150Z,12372.00
2019-02-18T11:36:18.063Z,12488.00
2019-02-18T11:37:18.033Z,12552.00
2019-02-18T11:38:18.309Z,12480.00
2019-02-18T11:39:18.003Z,12528.00
2019-02-18T11:40:17.999Z,12492.00
2019-02-18T11:41:27.098Z,12376.00
2019-02-18T11:42:17.973Z,12396.00
2019-02-18T11:43:17.969Z,12424.00
2019-02-18T11:44:18.264Z,12400.00
2019-02-18T11:45:17.956Z,12360.00
2019-02-18T11:46:17.942Z,12228.00
2019-02-18T11:47:17.942Z,12196.00
2019-02-18T11:48:17.925Z,12268.00
2019-02-18T11:49:17.909Z,12312.00
2019-02-18T11:50:18.211Z,12260.00
2019-02-18T11:51:17.904Z,13568.00
2019-02-18T11:52:17.907Z,18592.00
2019-02-18T11:53:17.874Z,21216.00
2019-02-18T11:54:17.867Z,20480.00
2019-02-18T11:55:17.956Z,20320.00
2019-02-18T11:56:18.175Z,19968.00
2019-02-18T11:57:17.940Z,20000.00
2019-02-18T11:58:17.838Z,20032.00
2019-02-18T11:59:24.372Z,20416.00
2019-02-18T12:00:17.815Z,20448.00
2019-02-18T12:01:17.795Z,20672.00
2019-02-18T12:02:18.213Z,20800.00
2019-02-18T12:03:17.797Z,20800.00
2019-02-18T12:04:17.770Z,20928.00
2019-02-18T12:05:17.776Z,21088.00
2019-02-18T12:06:17.815Z,21312.00
2019-02-18T12:07:17.763Z,20768.00
2019-02-18T12:08:18.037Z,20576.00
2019-02-18T12:09:17.999Z,20704.00
2019-02-18T12:10:17.753Z,20608.00
2019-02-18T12:11:17.739Z,20704.00
2019-02-18T12:12:17.812Z,20000.00
2019-02-18T12:13:17.709Z,19872.00
2019-02-18T12:14:18.003Z,20000.00
2019-02-18T12:15:17.683Z,19488.00
2019-02-18T12:16:17.764Z,19104.00
2019-02-18T12:18:17.643Z,19360.00
2019-02-18T12:19:17.640Z,19488.00
2019-02-18T12:20:17.989Z,19360.00
2019-02-18T12:21:17.621Z,19776.00
2019-02-18T12:22:17.610Z,19392.00
2019-02-18T12:23:17.625Z,19552.00
2019-02-18T12:24:17.664Z,19936.00
2019-02-18T12:26:24.232Z,20032.00
2019-02-18T12:27:17.662Z,20064.00
2019-02-18T12:28:17.572Z,20000.00
2019-02-18T12:29:26.234Z,19808.00
2019-02-18T12:30:17.531Z,19584.00
2019-02-18T12:31:17.540Z,19552.00
2019-02-18T12:32:18.113Z,19712.00
2019-02-18T12:33:17.503Z,19616.00
2019-02-18T12:34:17.498Z,19296.00
2019-02-18T12:35:17.491Z,19456.00
2019-02-18T12:37:17.465Z,20288.00
2019-02-18T12:38:17.769Z,20608.00
2019-02-18T12:39:17.443Z,20800.00
2019-02-18T12:40:17.454Z,20960.00
2019-02-18T12:41:17.781Z,20608.00
2019-02-18T12:42:17.425Z,20480.00
2019-02-18T12:43:17.411Z,20032.00
2019-02-18T12:44:17.718Z,19584.00
2019-02-18T12:45:17.391Z,19200.00
2019-02-18T12:46:17.403Z,19616.00
2019-02-18T12:47:17.492Z,19296.00
2019-02-18T12:48:17.411Z,18912.00
2019-02-18T12:49:17.366Z,19232.00
2019-02-18T12:50:17.679Z,19616.00
2019-02-18T12:51:17.360Z,19488.00
2019-02-18T12:52:17.428Z,19424.00
2019-02-18T12:53:17.337Z,19232.00
2019-02-18T12:54:17.308Z,19040.00
2019-02-18T12:55:17.483Z,18720.00
2019-02-18T12:56:17.839Z,18848.00
2019-02-18T12:57:17.275Z,18816.00
2019-02-18T12:58:17.626Z,18720.00
2019-02-18T12:59:17.322Z,18304.00
2019-02-18T13:00:17.415Z,18112.00
2019-02-18T13:01:17.242Z,17952.00
2019-02-18T13:02:17.537Z,17856.00
2019-02-18T13:04:17.223Z,17760.00
2019-02-18T13:05:17.325Z,17664.00
2019-02-18T13:06:17.205Z,17600.00
2019-02-18T13:07:17.225Z,17408.00
2019-02-18T13:08:17.424Z,16992.00
2019-02-18T13:09:17.180Z,16544.00
2019-02-18T13:10:17.152Z,16544.00
2019-02-18T13:11:58.738Z,16288.00
2019-02-18T13:12:17.155Z,16320.00
2019-02-18T13:13:17.138Z,16192.00
2019-02-18T13:14:17.624Z,16096.00
2019-02-18T13:15:17.145Z,15840.00
2019-02-18T13:16:17.098Z,15584.00
2019-02-18T13:17:17.088Z,15584.00
2019-02-18T13:18:17.074Z,15520.00
2019-02-18T13:19:17.093Z,15488.00
2019-02-18T13:20:17.360Z,15488.00
2019-02-18T13:22:17.037Z,14912.00
2019-02-18T13:23:17.026Z,14720.00
2019-02-18T13:24:17.065Z,14432.00
2019-02-18T13:25:17.023Z,14208.00
2019-02-18T13:26:17.309Z,14184.00
2019-02-18T13:27:17.168Z,13916.00
2019-02-18T13:28:16.998Z,13604.00
2019-02-18T13:29:17.040Z,13672.00
2019-02-18T13:30:17.009Z,13724.00
2019-02-18T13:31:16.944Z,13420.00
2019-02-18T13:32:17.235Z,13144.00
2019-02-18T13:33:17.058Z,12792.00
2019-02-18T13:34:17.220Z,12748.00
2019-02-18T13:36:16.895Z,12200.00
2019-02-18T13:37:16.963Z,12160.00
2019-02-18T13:38:17.176Z,12152.00
2019-02-18T13:40:16.979Z,11580.00
2019-02-18T13:41:16.847Z,11364.00
2019-02-18T13:42:16.965Z,11032.00
2019-02-18T13:43:16.855Z,10712.00
2019-02-18T13:44:17.148Z,10500.00
2019-02-18T13:46:16.820Z,10428.00
2019-02-18T13:47:16.781Z,10500.00
2019-02-18T13:48:16.786Z,10544.00
2019-02-18T13:49:16.772Z,10484.00
2019-02-18T13:50:17.056Z,10068.00
2019-02-18T13:51:24.082Z,9568.00
2019-02-18T13:52:16.852Z,9100.00
2019-02-18T13:53:16.748Z,8688.00
2019-02-18T13:54:16.784Z,8420.00
2019-02-18T13:55:16.724Z,8236.00
2019-02-18T13:56:17.099Z,8160.00
2019-02-18T13:57:16.698Z,8124.00